createdAt,value
2022-09-20T00:01:22.165Z,19.88
2022-09-20T00:03:48.632Z,20.07
2022-09-20T00:06:14.988Z,20.40
2022-09-20T00:08:41.471Z,20.45
2022-09-20T00:11:07.803Z,20.36
2022-09-20T00:13:34.137Z,20.10
2022-09-20T00:16:00.513Z,22.29
2022-09-20T00:18:26.864Z,21.37
2022-09-20T00:20:53.190Z,20.39
2022-09-20T00:23:19.637Z,20.39
2022-09-20T00:25:46.104Z,20.14
2022-09-20T00:28:12.436Z,20.04
2022-09-20T00:30:38.829Z,20.07
2022-09-20T00:33:05.185Z,20.42
2022-09-20T00:35:31.543Z,20.30
2022-09-20T00:37:57.918Z,20.41
2022-09-20T00:40:24.290Z,20.55
2022-09-20T00:42:50.712Z,20.31
2022-09-20T00:45:17.168Z,21.42
2022-09-20T00:47:43.499Z,21.72
2022-09-20T00:50:09.854Z,20.57
2022-09-20T00:52:36.316Z,20.33
2022-09-20T00:55:02.641Z,20.37
2022-09-20T00:57:28.984Z,20.33
2022-09-20T00:59:55.343Z,20.30
2022-09-20T01:02:21.733Z,19.98
2022-09-20T01:04:48.147Z,20.22
2022-09-20T01:07:14.513Z,20.31
2022-09-20T01:09:40.842Z,20.51
2022-09-20T01:12:07.162Z,20.66
2022-09-20T01:14:33.523Z,20.26
2022-09-20T01:16:59.958Z,22.34
2022-09-20T01:19:26.363Z,21.28
2022-09-20T01:21:52.735Z,20.74
2022-09-20T01:24:19.083Z,20.25
2022-09-20T01:26:45.433Z,20.45
2022-09-20T01:29:11.874Z,20.41
2022-09-20T01:31:38.241Z,20.06
2022-09-20T01:34:04.631Z,20.16
2022-09-20T01:36:30.998Z,20.30
2022-09-20T01:39:00.217Z,20.29
2022-09-20T01:41:26.555Z,20.38
2022-09-20T01:43:53.077Z,20.22
2022-09-20T01:46:19.550Z,21.98
2022-09-20T01:48:45.933Z,21.95
2022-09-20T01:51:12.308Z,20.85
2022-09-20T01:53:38.646Z,20.40
2022-09-20T01:56:04.996Z,20.38
2022-09-20T01:58:31.370Z,20.33
2022-09-20T02:00:57.740Z,20.08
2022-09-20T02:03:24.132Z,20.62
2022-09-20T02:05:50.486Z,20.13
2022-09-20T02:08:16.835Z,20.32
2022-09-20T02:10:43.189Z,20.30
2022-09-20T02:13:09.596Z,20.61
2022-09-20T02:15:35.928Z,20.97
2022-09-20T02:18:02.272Z,22.05
2022-09-20T02:20:28.633Z,21.26
2022-09-20T02:22:54.996Z,20.71
2022-09-20T02:25:21.399Z,20.31
2022-09-20T02:27:47.865Z,20.17
2022-09-20T02:30:14.211Z,20.17
2022-09-20T02:32:40.530Z,20.18
2022-09-20T02:35:06.869Z,20.46
2022-09-20T02:37:33.207Z,20.37
2022-09-20T02:39:59.614Z,20.24
2022-09-20T02:42:26.090Z,20.34
2022-09-20T02:44:52.444Z,20.23
2022-09-20T02:47:18.802Z,22.66
2022-09-20T02:49:45.167Z,21.36
2022-09-20T02:52:11.508Z,20.64
2022-09-20T02:54:37.840Z,20.33
2022-09-20T02:57:04.192Z,20.41
2022-09-20T02:59:30.524Z,20.09
2022-09-20T03:01:56.890Z,20.38
2022-09-20T03:04:23.279Z,20.40
2022-09-20T03:06:49.610Z,20.44
2022-09-20T03:09:15.966Z,20.53
2022-09-20T03:11:42.420Z,20.73
2022-09-20T03:14:08.879Z,20.58
2022-09-20T03:16:35.321Z,21.72
2022-09-20T03:19:04.120Z,21.91
2022-09-20T03:21:30.474Z,21.01
2022-09-20T03:23:56.839Z,20.32
2022-09-20T03:26:23.177Z,20.34
2022-09-20T03:28:49.532Z,20.36
2022-09-20T03:31:15.871Z,20.37
2022-09-20T03:33:42.315Z,20.09
2022-09-20T03:36:08.668Z,20.65
2022-09-20T03:38:35.017Z,20.57
2022-09-20T03:41:01.492Z,20.55
2022-09-20T03:43:27.839Z,20.87
2022-09-20T03:45:54.232Z,20.31
2022-09-20T03:48:20.755Z,22.75
2022-09-20T03:50:47.084Z,21.24
2022-09-20T03:53:13.420Z,20.56
2022-09-20T03:55:39.791Z,20.70
2022-09-20T03:58:08.863Z,20.35
2022-09-20T04:00:35.462Z,20.37
2022-09-20T04:03:01.835Z,19.32
2022-09-20T04:05:28.194Z,19.09
2022-09-20T04:07:54.518Z,18.93
2022-09-20T04:10:20.874Z,19.47
2022-09-20T04:12:47.230Z,19.26
2022-09-20T04:15:13.580Z,19.17
2022-09-20T04:17:39.955Z,20.94
2022-09-20T04:20:06.309Z,20.11
2022-09-20T04:22:32.667Z,19.20
2022-09-20T04:24:59.017Z,18.94
2022-09-20T04:27:25.349Z,18.98
2022-09-20T04:29:51.687Z,18.77
2022-09-20T04:32:18.212Z,18.89
2022-09-20T04:34:44.581Z,19.06
2022-09-20T04:37:10.916Z,19.08
2022-09-20T04:39:37.284Z,19.09
2022-09-20T04:42:03.620Z,18.97
2022-09-20T04:44:29.970Z,18.83
2022-09-20T04:46:56.472Z,20.66
2022-09-20T04:49:22.803Z,19.74
2022-09-20T04:51:49.154Z,19.10
2022-09-20T04:54:15.526Z,19.08
2022-09-20T04:56:41.863Z,18.79
2022-09-20T04:59:08.315Z,19.04
2022-09-20T05:01:34.782Z,18.84
2022-09-20T05:04:01.155Z,18.86
2022-09-20T05:06:27.511Z,18.90
2022-09-20T05:08:58.029Z,18.90
2022-09-20T05:11:25.317Z,19.14
2022-09-20T05:13:51.659Z,19.09
2022-09-20T05:16:18.074Z,20.78
2022-09-20T05:18:44.434Z,20.17
2022-09-20T05:21:10.772Z,19.49
2022-09-20T05:23:37.268Z,19.11
2022-09-20T05:26:03.603Z,18.93
2022-09-20T05:28:29.947Z,19.03
2022-09-20T05:30:56.318Z,18.67
2022-09-20T05:33:22.666Z,18.84
2022-09-20T05:35:49.032Z,19.01
2022-09-20T05:38:15.408Z,19.03
2022-09-20T05:40:41.760Z,19.00
2022-09-20T05:43:08.114Z,18.91
2022-09-20T05:45:34.507Z,20.66
2022-09-20T05:48:00.881Z,20.03
2022-09-20T05:50:27.210Z,19.37
2022-09-20T05:52:53.660Z,18.91
2022-09-20T05:55:19.998Z,18.97
2022-09-20T05:57:46.326Z,18.65
2022-09-20T06:00:12.719Z,18.67
2022-09-20T06:02:39.135Z,19.07
2022-09-20T06:05:05.507Z,18.97
2022-09-20T06:07:32.005Z,18.83
2022-09-20T06:09:58.348Z,18.92
2022-09-20T06:12:24.696Z,19.38
2022-09-20T06:14:51.070Z,20.20
2022-09-20T06:17:17.421Z,18.80
2022-09-20T06:19:43.773Z,18.69
2022-09-20T06:22:10.129Z,18.62
2022-09-20T06:24:36.495Z,18.80
2022-09-20T06:27:02.832Z,18.71
2022-09-20T06:29:29.278Z,18.66
2022-09-20T06:31:55.621Z,18.78
2022-09-20T06:34:21.968Z,19.01
2022-09-20T06:36:48.437Z,19.01
2022-09-20T06:39:14.768Z,18.84
2022-09-20T06:41:41.114Z,20.13
2022-09-20T06:44:07.576Z,19.74
2022-09-20T06:46:33.968Z,19.13
2022-09-20T06:49:00.295Z,18.90
2022-09-20T06:51:26.651Z,18.79
2022-09-20T06:53:53.031Z,18.92
2022-09-20T06:56:19.360Z,18.97
2022-09-20T06:58:45.729Z,19.01
2022-09-20T07:01:12.153Z,19.06
2022-09-20T07:03:39.782Z,19.11
2022-09-20T07:06:06.156Z,19.13
2022-09-20T07:08:32.500Z,19.74
2022-09-20T07:10:58.870Z,20.38
2022-09-20T07:13:25.275Z,19.19
2022-09-20T07:15:51.643Z,18.78
2022-09-20T07:18:18.026Z,18.50
2022-09-20T07:20:44.502Z,18.52
2022-09-20T07:23:10.850Z,18.92
2022-09-20T07:25:37.244Z,18.87
2022-09-20T07:28:03.675Z,18.63
2022-09-20T07:30:30.053Z,19.04
2022-09-20T07:32:56.407Z,18.78
2022-09-20T07:35:22.782Z,19.34
2022-09-20T07:37:49.172Z,20.18
2022-09-20T07:40:15.590Z,18.85
2022-09-20T07:42:42.119Z,18.47
2022-09-20T07:45:08.464Z,18.16
2022-09-20T07:47:34.819Z,18.66
2022-09-20T07:50:01.272Z,18.68
2022-09-20T07:52:27.605Z,18.84
2022-09-20T07:54:53.963Z,18.54
2022-09-20T07:57:20.471Z,18.92
2022-09-20T07:59:46.806Z,18.90
2022-09-20T08:02:13.187Z,19.49
2022-09-20T08:04:39.689Z,20.17
2022-09-20T08:07:06.029Z,19.02
2022-09-20T08:09:32.377Z,18.77
2022-09-20T08:11:58.996Z,18.78
2022-09-20T08:14:25.436Z,18.67
2022-09-20T08:16:51.845Z,18.69
2022-09-20T08:19:18.342Z,18.84
2022-09-20T08:21:44.700Z,18.82
2022-09-20T08:24:11.075Z,18.79
2022-09-20T08:26:37.478Z,18.98
2022-09-20T08:29:03.864Z,19.26
2022-09-20T08:31:30.259Z,20.37
2022-09-20T08:33:56.657Z,19.59
2022-09-20T08:36:22.992Z,18.79
2022-09-20T08:41:36.024Z,18.70
2022-09-20T08:44:02.379Z,18.34
2022-09-20T08:46:28.891Z,18.33
2022-09-20T08:48:55.326Z,18.61
2022-09-20T08:51:23.147Z,18.79
2022-09-20T08:53:49.686Z,18.84
2022-09-20T08:56:16.071Z,18.93
2022-09-20T08:58:42.443Z,20.11
2022-09-20T09:01:08.825Z,20.09
2022-09-20T09:03:35.368Z,19.02
2022-09-20T09:06:01.717Z,18.96
2022-09-20T09:08:28.149Z,18.89
2022-09-20T09:10:54.515Z,18.96
2022-09-20T09:13:21.021Z,18.92
2022-09-20T09:15:47.359Z,18.89
2022-09-20T09:18:13.908Z,18.98
2022-09-20T09:20:40.288Z,19.09
2022-09-20T09:23:06.694Z,19.05
2022-09-20T09:25:33.073Z,19.91
2022-09-20T09:27:59.466Z,20.66
2022-09-20T09:30:25.803Z,19.30
2022-09-20T09:32:52.284Z,18.59
2022-09-20T09:35:18.640Z,18.56
2022-09-20T09:37:44.974Z,18.77
2022-09-20T09:40:11.455Z,19.15
2022-09-20T09:42:37.861Z,19.23
2022-09-20T09:45:04.245Z,19.10
2022-09-20T09:47:30.668Z,19.44
2022-09-20T09:50:00.301Z,19.16
2022-09-20T09:52:29.087Z,19.76
2022-09-20T09:54:55.510Z,20.61
2022-09-20T09:57:21.854Z,19.53
2022-09-20T09:59:48.233Z,18.94
2022-09-20T10:02:14.710Z,19.08
2022-09-20T10:04:41.103Z,18.77
2022-09-20T10:07:07.460Z,18.84
2022-09-20T10:09:33.951Z,19.11
2022-09-20T10:12:00.333Z,19.13
2022-09-20T10:14:26.722Z,19.15
2022-09-20T10:16:53.188Z,18.93
2022-09-20T10:19:22.715Z,18.93
2022-09-20T10:21:49.312Z,20.83
2022-09-20T10:24:15.801Z,19.79
2022-09-20T10:26:42.178Z,19.23
2022-09-20T10:29:12.553Z,18.98
2022-09-20T10:31:39.221Z,18.52
2022-09-20T10:34:05.650Z,18.52
2022-09-20T10:36:32.073Z,18.85
2022-09-20T10:38:58.551Z,18.80
2022-09-20T10:41:24.901Z,18.86
2022-09-20T10:43:51.265Z,18.93
2022-09-20T10:46:33.685Z,18.98
2022-09-20T10:49:03.445Z,20.19
2022-09-20T10:51:29.902Z,19.80
2022-09-20T10:53:56.288Z,19.43
2022-09-20T10:56:22.724Z,18.80
2022-09-20T10:58:49.120Z,18.99
2022-09-20T11:01:15.535Z,19.12
2022-09-20T11:03:41.896Z,19.19
2022-09-20T11:06:08.273Z,19.07
2022-09-20T11:08:34.634Z,19.03
2022-09-20T11:11:01.000Z,18.63
2022-09-20T11:13:27.517Z,18.64
2022-09-20T11:15:53.928Z,18.66
2022-09-20T11:18:20.287Z,19.97
2022-09-20T11:20:46.757Z,19.15
2022-09-20T11:23:13.159Z,19.07
2022-09-20T11:25:39.505Z,18.89
2022-09-20T11:28:05.896Z,18.67
2022-09-20T11:30:32.258Z,18.46
2022-09-20T11:32:58.632Z,18.78
2022-09-20T11:35:25.023Z,18.77
2022-09-20T11:37:51.397Z,19.11
2022-09-20T11:40:17.789Z,19.12
2022-09-20T11:42:44.247Z,19.06
2022-09-20T11:45:10.599Z,19.36
2022-09-20T11:47:53.940Z,20.80
2022-09-20T11:50:21.597Z,19.83
2022-09-20T11:52:47.952Z,18.77
2022-09-20T11:55:14.300Z,18.93
2022-09-20T11:57:40.686Z,18.80
2022-09-20T12:00:07.060Z,18.88
2022-09-20T12:02:33.493Z,18.87
2022-09-20T12:04:59.919Z,19.07
2022-09-20T12:07:26.254Z,18.81
2022-09-20T12:09:52.637Z,18.35
2022-09-20T12:12:19.000Z,18.59
2022-09-20T12:14:45.351Z,18.67
2022-09-20T12:17:11.685Z,19.88
2022-09-20T12:19:38.105Z,19.20
2022-09-20T12:22:04.450Z,18.60
2022-09-20T12:24:30.852Z,18.29
2022-09-20T12:26:57.205Z,18.39
2022-09-20T12:29:23.579Z,18.63
2022-09-20T12:31:49.975Z,18.64
2022-09-20T12:34:16.397Z,19.02
2022-09-20T12:36:42.751Z,18.62
2022-09-20T12:39:09.126Z,18.28
2022-09-20T12:41:35.611Z,18.26
2022-09-20T12:44:01.997Z,19.25
2022-09-20T12:46:28.333Z,19.00
2022-09-20T12:48:54.745Z,18.49
2022-09-20T12:51:21.144Z,18.34
2022-09-20T12:53:47.482Z,17.96
2022-09-20T12:56:13.851Z,17.20
2022-09-20T12:58:40.200Z,17.17
2022-09-20T13:01:10.620Z,17.73
2022-09-20T13:03:39.779Z,17.31
2022-09-20T13:06:06.139Z,17.62
2022-09-20T13:08:32.481Z,17.79
2022-09-20T13:10:58.854Z,18.15
2022-09-20T13:13:25.211Z,19.22
2022-09-20T13:15:51.550Z,18.11
2022-09-20T13:18:17.922Z,17.65
2022-09-20T13:20:44.301Z,17.05
2022-09-20T13:23:10.647Z,16.85
2022-09-20T13:25:37.025Z,16.92
2022-09-20T13:28:03.386Z,17.10
2022-09-20T13:30:29.758Z,17.00
2022-09-20T13:32:56.259Z,17.17
2022-09-20T13:35:22.646Z,17.42
2022-09-20T13:37:49.034Z,17.36
2022-09-20T13:40:15.550Z,17.48
2022-09-20T13:42:42.072Z,18.53
2022-09-20T13:45:08.467Z,18.50
2022-09-20T13:47:34.861Z,17.63
2022-09-20T13:50:01.248Z,17.57
2022-09-20T13:52:27.588Z,17.26
2022-09-20T13:54:54.057Z,17.42
2022-09-20T13:57:20.387Z,16.79
2022-09-20T13:59:46.743Z,16.70
2022-09-20T14:02:13.352Z,17.13
2022-09-20T14:04:39.711Z,17.40
2022-09-20T14:07:06.169Z,17.48
2022-09-20T14:09:32.575Z,17.65
2022-09-20T14:11:59.007Z,17.94
2022-09-20T14:14:25.352Z,18.26
2022-09-20T14:16:51.732Z,17.18
2022-09-20T14:19:18.093Z,17.01
2022-09-20T14:21:44.437Z,16.61
2022-09-20T14:24:10.827Z,16.49
2022-09-20T14:26:37.210Z,17.17
2022-09-20T14:29:03.611Z,16.91
2022-09-20T14:31:30.173Z,16.88
2022-09-20T14:33:56.540Z,17.29
2022-09-20T14:36:22.921Z,16.93
2022-09-20T14:38:49.306Z,17.24
2022-09-20T14:41:15.653Z,17.71
2022-09-20T14:43:42.039Z,19.09
2022-09-20T14:46:08.569Z,18.33
2022-09-20T14:48:35.030Z,17.88
2022-09-20T14:51:02.765Z,17.62
2022-09-20T14:53:29.284Z,17.52
2022-09-20T14:55:55.647Z,17.56
2022-09-20T14:58:21.985Z,17.35
2022-09-20T15:00:48.535Z,17.64
2022-09-20T15:03:14.901Z,17.48
2022-09-20T15:05:41.251Z,17.33
2022-09-20T15:08:07.646Z,17.33
2022-09-20T15:10:34.058Z,17.64
2022-09-20T15:13:00.518Z,18.90
2022-09-20T15:15:26.868Z,18.23
2022-09-20T15:17:53.215Z,18.02
2022-09-20T15:20:23.770Z,17.62
2022-09-20T15:22:50.914Z,17.79
2022-09-20T15:25:17.267Z,17.75
2022-09-20T15:27:43.614Z,18.03
2022-09-20T15:30:10.094Z,18.30
2022-09-20T15:32:36.460Z,18.13
2022-09-20T15:35:02.801Z,18.13
2022-09-20T15:37:29.292Z,17.80
2022-09-20T15:39:55.641Z,19.10
2022-09-20T15:42:21.989Z,18.92
2022-09-20T15:44:48.365Z,17.96
2022-09-20T15:47:16.102Z,17.79
2022-09-20T15:49:42.580Z,17.76
2022-09-20T15:52:09.033Z,17.56
2022-09-20T15:54:35.376Z,17.78
2022-09-20T15:57:01.724Z,18.12
2022-09-20T15:59:28.205Z,17.85
2022-09-20T16:01:54.577Z,17.95
2022-09-20T16:04:20.964Z,17.75
2022-09-20T16:06:47.445Z,18.08
2022-09-20T16:09:13.786Z,19.53
2022-09-20T16:11:40.144Z,18.85
2022-09-20T16:14:06.523Z,18.15
2022-09-20T16:16:37.379Z,18.19
2022-09-20T16:19:05.584Z,18.01
2022-09-20T16:21:32.126Z,17.99
2022-09-20T16:23:58.468Z,18.22
2022-09-20T16:26:24.808Z,18.12
2022-09-20T16:28:51.263Z,18.11
2022-09-20T16:31:17.773Z,18.29
2022-09-20T16:33:44.125Z,18.35
2022-09-20T16:36:10.481Z,19.26
2022-09-20T16:38:36.816Z,19.91
2022-09-20T16:41:03.154Z,18.71
2022-09-20T16:43:29.522Z,18.31
2022-09-20T16:45:55.935Z,18.14
2022-09-20T16:48:22.340Z,18.09
2022-09-20T16:50:48.696Z,18.06
2022-09-20T16:53:15.088Z,17.99
2022-09-20T16:55:41.422Z,18.17
2022-09-20T16:58:07.776Z,18.17
2022-09-20T17:00:34.102Z,18.19
2022-09-20T17:03:00.451Z,18.63
2022-09-20T17:05:26.864Z,20.01
2022-09-20T17:07:53.224Z,19.46
2022-09-20T17:10:19.584Z,18.66
2022-09-20T17:12:46.837Z,18.22
2022-09-20T17:15:13.539Z,18.10
2022-09-20T17:17:39.869Z,18.11
2022-09-20T17:20:06.316Z,18.28
2022-09-20T17:22:32.660Z,18.25
2022-09-20T17:24:58.984Z,18.13
2022-09-20T17:27:25.335Z,18.41
2022-09-20T17:29:51.707Z,18.64
2022-09-20T17:32:18.046Z,18.81
2022-09-20T17:34:44.448Z,20.45
2022-09-20T17:37:10.800Z,18.87
2022-09-20T17:39:37.127Z,18.43
2022-09-20T17:42:03.511Z,18.15
2022-09-20T17:44:29.842Z,17.96
2022-09-20T17:46:56.197Z,18.21
2022-09-20T17:49:22.605Z,18.19
2022-09-20T17:51:48.945Z,18.24
2022-09-20T17:54:15.272Z,18.67
2022-09-20T17:56:41.646Z,18.33
2022-09-20T17:59:08.295Z,18.67
2022-09-20T18:01:34.627Z,19.12
2022-09-20T18:04:01.017Z,20.49
2022-09-20T18:06:27.350Z,19.19
2022-09-20T18:08:53.670Z,18.48
2022-09-20T18:11:20.050Z,18.37
2022-09-20T18:13:46.395Z,18.18
2022-09-20T18:16:12.761Z,18.38
2022-09-20T18:18:39.250Z,18.22
2022-09-20T18:21:05.597Z,18.34
2022-09-20T18:23:31.930Z,18.36
2022-09-20T18:25:58.286Z,18.52
2022-09-20T18:28:24.633Z,18.45
2022-09-20T18:30:50.985Z,18.51
2022-09-20T18:33:17.428Z,19.25
2022-09-20T18:35:43.750Z,20.16
2022-09-20T18:38:10.087Z,18.90
2022-09-20T18:40:36.658Z,18.30
2022-09-20T18:43:04.776Z,18.23
2022-09-20T18:45:31.289Z,18.10
2022-09-20T18:47:57.636Z,18.14
2022-09-20T18:50:23.958Z,18.17
2022-09-20T18:52:50.309Z,18.11
2022-09-20T18:55:16.672Z,18.23
2022-09-20T18:57:43.004Z,18.14
2022-09-20T19:00:09.341Z,18.02
2022-09-20T19:02:35.735Z,18.32
2022-09-20T19:05:02.069Z,19.86
2022-09-20T19:07:28.419Z,19.73
2022-09-20T19:09:54.790Z,18.89
2022-09-20T19:12:21.114Z,18.11
2022-09-20T19:14:47.449Z,17.87
2022-09-20T19:17:13.794Z,17.93
2022-09-20T19:19:40.141Z,17.85
2022-09-20T19:22:06.465Z,18.07
2022-09-20T19:24:32.936Z,17.91
2022-09-20T19:26:59.280Z,17.88
2022-09-20T19:29:25.617Z,18.29
2022-09-20T19:31:52.099Z,18.12
2022-09-20T19:34:18.433Z,18.21
2022-09-20T19:36:44.757Z,20.00
2022-09-20T19:39:12.690Z,18.82
2022-09-20T19:41:39.022Z,18.25
2022-09-20T19:44:05.370Z,17.79
2022-09-20T19:46:31.835Z,17.70
2022-09-20T19:48:58.243Z,17.82
2022-09-20T19:51:24.582Z,17.67
2022-09-20T19:53:50.938Z,17.70
2022-09-20T19:56:17.281Z,17.73
2022-09-20T19:58:43.616Z,17.79
2022-09-20T20:01:09.973Z,17.86
2022-09-20T20:03:36.306Z,17.72
2022-09-20T20:06:07.647Z,19.32
2022-09-20T20:08:34.577Z,19.23
2022-09-20T20:11:00.905Z,18.06
2022-09-20T20:13:27.266Z,17.58
2022-09-20T20:15:53.648Z,17.70
2022-09-20T20:18:19.993Z,17.57
2022-09-20T20:20:46.331Z,17.48
2022-09-20T20:23:12.674Z,17.59
2022-09-20T20:25:39.021Z,17.57
2022-09-20T20:28:05.363Z,17.64
2022-09-20T20:30:31.848Z,17.61
2022-09-20T20:32:58.193Z,17.80
2022-09-20T20:35:24.521Z,17.72
2022-09-20T20:37:50.905Z,19.80
2022-09-20T20:40:17.271Z,18.51
2022-09-20T20:42:43.660Z,17.63
2022-09-20T20:45:10.105Z,17.19
2022-09-20T20:47:36.456Z,17.27
2022-09-20T20:50:02.791Z,17.54
2022-09-20T20:52:29.142Z,17.34
2022-09-20T20:54:55.477Z,17.18
2022-09-20T20:57:21.813Z,17.58
2022-09-20T20:59:48.180Z,17.32
2022-09-20T21:02:14.524Z,17.61
2022-09-20T21:04:40.861Z,17.37
2022-09-20T21:07:07.233Z,17.56
2022-09-20T21:09:33.553Z,19.47
2022-09-20T21:11:59.879Z,18.67
2022-09-20T21:14:26.255Z,17.65
2022-09-20T21:16:52.591Z,17.24
2022-09-20T21:19:18.940Z,17.35
2022-09-20T21:21:45.308Z,17.00
2022-09-20T21:24:11.638Z,17.04
2022-09-20T21:26:37.976Z,17.34
2022-09-20T21:29:04.444Z,17.34
2022-09-20T21:31:30.827Z,17.27
2022-09-20T21:33:57.207Z,17.28
2022-09-20T21:36:23.685Z,17.28
2022-09-20T21:38:50.028Z,17.44
2022-09-20T21:41:16.345Z,19.35
2022-09-20T21:43:42.815Z,18.29
2022-09-20T21:46:09.189Z,17.47
2022-09-20T21:48:35.539Z,17.38
2022-09-20T21:51:01.886Z,17.38
2022-09-20T21:53:28.211Z,16.71
2022-09-20T21:55:54.554Z,16.87
2022-09-20T21:58:20.929Z,17.13
2022-09-20T22:00:47.280Z,17.22
2022-09-20T22:03:13.610Z,17.11
2022-09-20T22:05:40.087Z,17.17
2022-09-20T22:08:06.433Z,17.16
2022-09-20T22:10:32.781Z,17.29
2022-09-20T22:12:59.246Z,19.56
2022-09-20T22:15:25.602Z,18.49
2022-09-20T22:17:51.963Z,17.23
2022-09-20T22:20:18.391Z,17.26
2022-09-20T22:22:44.717Z,16.74
2022-09-20T22:25:11.053Z,17.20
2022-09-20T22:27:37.435Z,16.88
2022-09-20T22:30:05.061Z,17.21
2022-09-20T22:32:31.588Z,17.19
2022-09-20T22:34:57.960Z,17.41
2022-09-20T22:37:24.312Z,17.12
2022-09-20T22:39:50.641Z,17.51
2022-09-20T22:42:17.007Z,17.43
2022-09-20T22:44:43.346Z,19.26
2022-09-20T22:47:09.687Z,18.57
2022-09-20T22:49:36.182Z,17.50
2022-09-20T22:52:02.509Z,17.44
2022-09-20T22:54:28.826Z,17.05
2022-09-20T22:56:55.294Z,17.12
2022-09-20T22:59:21.614Z,17.29
2022-09-20T23:01:47.953Z,17.13
2022-09-20T23:04:14.332Z,17.29
2022-09-20T23:06:40.659Z,17.42
2022-09-20T23:09:06.995Z,17.42
2022-09-20T23:11:33.403Z,17.55
2022-09-20T23:13:59.769Z,17.81
2022-09-20T23:16:26.188Z,19.47
2022-09-20T23:18:59.885Z,18.29
2022-09-20T23:21:26.261Z,17.60
2022-09-20T23:23:52.723Z,17.30
2022-09-20T23:26:19.067Z,17.33
2022-09-20T23:28:45.470Z,17.37
2022-09-20T23:31:11.872Z,17.39
2022-09-20T23:33:38.215Z,17.13
2022-09-20T23:36:04.537Z,17.36
2022-09-20T23:38:30.895Z,17.54
2022-09-20T23:40:57.231Z,17.54
2022-09-20T23:43:23.560Z,17.78
2022-09-20T23:45:50.051Z,17.99
2022-09-20T23:48:16.416Z,19.75
2022-09-20T23:50:42.772Z,18.43
2022-09-20T23:53:09.129Z,17.71
2022-09-20T23:55:35.464Z,17.10
2022-09-20T23:58:01.794Z,17.41
